Time;durP1;ratioP1;P1;durP2;ratioP2;P2;SDS_P1;SDS_P2;PMS_P1;PMS_P2;Temp;Humidity;BMP_temperature;BMP_pressure;BME280_temperature;BME280_humidity;BME280_pressure;Samples;Min_cycle;Max_cycle;Signal;HPM_P1;HPM_P2
2022/11/30 00:00:30;;;;;;;113.80;42.53;;;5.70;99.90;;;;;;5053966;28;20048;-70
2022/11/30 00:02:57;;;;;;;123.90;43.88;;;5.70;99.90;;;;;;5062481;28;20060;-70
2022/11/30 00:05:23;;;;;;;121.90;42.33;;;5.70;99.90;;;;;;5061836;28;20095;-71
2022/11/30 00:07:49;;;;;;;125.45;43.75;;;5.70;99.90;;;;;;5062576;28;20025;-71
2022/11/30 00:10:15;;;;;;;132.10;44.00;;;5.70;99.90;;;;;;5062087;28;20029;-70
2022/11/30 00:12:41;;;;;;;108.00;43.22;;;5.70;99.90;;;;;;5061683;28;20037;-71
2022/11/30 00:15:11;;;;;;;95.13;40.00;;;5.70;99.90;;;;;;5043555;28;20681;-71
2022/11/30 00:17:36;;;;;;;119.35;42.58;;;5.70;99.90;;;;;;5061251;28;20037;-70
2022/11/30 00:20:02;;;;;;;110.25;41.20;;;5.70;99.90;;;;;;5061521;28;20534;-71
2022/11/30 00:22:28;;;;;;;115.75;42.13;;;5.70;99.90;;;;;;5061765;28;20039;-71
2022/11/30 00:24:54;;;;;;;101.20;42.10;;;5.70;99.90;;;;;;5062168;28;20021;-72
2022/11/30 00:27:19;;;;;;;105.20;41.70;;;5.70;99.90;;;;;;5061372;28;20092;-70
2022/11/30 00:29:45;;;;;;;111.75;40.67;;;5.70;99.90;;;;;;5061725;28;20344;-71
2022/11/30 00:32:10;;;;;;;112.00;41.75;;;5.70;99.90;;;;;;5043289;28;20029;-71
2022/11/30 00:34:36;;;;;;;124.38;44.15;;;5.70;99.90;;;;;;5061353;28;20021;-71
2022/11/30 00:37:02;;;;;;;120.55;44.25;;;5.70;99.90;;;;;;5061105;28;20040;-71
2022/11/30 00:39:27;;;;;;;110.70;41.15;;;5.70;99.90;;;;;;5043745;28;20040;-71
2022/11/30 00:41:53;;;;;;;108.80;41.90;;;5.70;99.90;;;;;;5062148;28;20025;-71
2022/11/30 00:44:19;;;;;;;103.65;41.67;;;5.70;99.90;;;;;;5061703;28;20029;-70
2022/11/30 00:46:44;;;;;;;99.93;39.17;;;5.70;99.90;;;;;;5061048;28;20093;-71
2022/11/30 00:49:10;;;;;;;111.82;41.30;;;5.70;99.90;;;;;;5061710;28;20033;-71
2022/11/30 00:51:37;;;;;;;112.63;41.10;;;5.70;99.90;;;;;;5061249;28;20037;-70
2022/11/30 00:54:03;;;;;;;114.60;42.55;;;5.60;99.90;;;;;;5061465;28;20021;-71
2022/11/30 00:56:29;;;;;;;105.80;41.28;;;5.60;99.90;;;;;;5061489;28;20063;-70
2022/11/30 00:58:54;;;;;;;118.10;41.75;;;5.70;99.90;;;;;;5061819;28;20025;-71
2022/11/30 01:01:20;;;;;;;116.20;39.83;;;5.70;99.90;;;;;;5060751;28;20041;-70
2022/11/30 01:03:46;;;;;;;110.20;39.25;;;5.70;99.90;;;;;;5061119;28;20662;-69
2022/11/30 01:06:11;;;;;;;112.63;40.88;;;5.70;99.90;;;;;;5061341;28;20045;-69
2022/11/30 01:08:37;;;;;;;105.35;39.90;;;5.70;99.90;;;;;;5061600;28;20048;-70
2022/11/30 01:11:10;;;;;;;113.97;41.85;;;5.70;99.90;;;;;;5065477;28;20024;-70
2022/11/30 01:13:36;;;;;;;104.53;39.13;;;5.70;99.90;;;;;;5065254;28;20025;-69
2022/11/30 01:16:08;;;;;;;125.82;42.42;;;5.70;99.90;;;;;;5064945;28;20067;-70
2022/11/30 01:18:37;;;;;;;109.03;41.65;;;5.70;99.90;;;;;;5065368;28;20060;-71
2022/11/30 01:21:12;;;;;;;122.15;42.90;;;5.80;99.90;;;;;;5064923;28;20027;-70
2022/11/30 01:23:38;;;;;;;122.18;43.58;;;5.70;99.90;;;;;;5064952;28;20095;-71
2022/11/30 01:26:03;;;;;;;119.63;43.05;;;5.70;99.90;;;;;;5065187;28;20044;-70
2022/11/30 01:28:29;;;;;;;123.30;41.45;;;5.70;99.90;;;;;;5065104;28;20033;-70
2022/11/30 01:31:05;;;;;;;112.53;41.63;;;5.80;99.90;;;;;;5064383;28;20060;-69
2022/11/30 01:33:31;;;;;;;108.57;40.42;;;5.70;99.90;;;;;;5064415;28;20037;-71
2022/11/30 01:36:12;;;;;;;113.38;40.10;;;5.70;99.90;;;;;;5065098;28;20029;-72
2022/11/30 01:38:49;;;;;;;113.20;39.45;;;5.70;99.90;;;;;;5064814;28;20039;-70
2022/11/30 01:41:22;;;;;;;132.55;40.95;;;5.70;99.90;;;;;;5064282;28;20025;-70
2022/11/30 01:43:56;;;;;;;119.20;40.25;;;5.60;99.90;;;;;;5064792;28;20028;-71
2022/11/30 01:46:39;;;;;;;;;;;5.60;99.90;;;;;;5065386;28;20031;-70
2022/11/30 01:49:08;;;;;;;111.13;38.13;;;5.70;99.90;;;;;;5064765;28;19908;-70
2022/11/30 01:51:47;;;;;;;130.57;40.65;;;5.60;99.90;;;;;;5064071;28;20245;-70
2022/11/30 01:54:17;;;;;;;118.15;42.60;;;5.60;99.90;;;;;;5065074;28;20021;-69
2022/11/30 01:56:58;;;;;;;121.03;41.10;;;5.60;99.90;;;;;;5065044;28;20032;-69
2022/11/30 01:59:25;;;;;;;120.70;41.50;;;5.60;99.90;;;;;;5064143;28;20033;-72
2022/11/30 02:01:52;;;;;;;127.15;40.30;;;5.60;99.90;;;;;;5064819;28;20116;-71
2022/11/30 02:04:27;;;;;;;127.35;42.08;;;5.60;99.90;;;;;;5064572;28;20477;-69
2022/11/30 02:06:58;;;;;;;118.60;40.22;;;5.60;99.90;;;;;;5064661;28;20041;-71
2022/11/30 02:09:26;;;;;;;119.20;38.65;;;5.60;99.90;;;;;;5064327;28;20056;-71
2022/11/30 02:11:52;;;;;;;119.47;39.58;;;5.60;99.90;;;;;;5064555;28;20089;-71
2022/11/30 02:14:42;;;;;;;113.80;39.28;;;5.60;99.90;;;;;;5064300;28;20204;-70
2022/11/30 02:17:34;;;;;;;112.88;38.42;;;5.60;99.90;;;;;;5064030;28;20032;-69
2022/11/30 02:20:30;;;;;;;134.68;40.53;;;5.50;99.90;;;;;;5061492;28;20041;-70
2022/11/30 02:23:17;;;;;;;107.88;39.70;;;5.60;99.90;;;;;;5064533;28;20079;-71
2022/11/30 02:26:21;;;;;;;105.88;37.47;;;5.60;99.90;;;;;;5063845;28;20033;-69
2022/11/30 02:28:52;;;;;;;119.18;37.65;;;5.60;99.90;;;;;;5056973;28;20366;-71
2022/11/30 02:31:24;;;;;;;106.60;38.00;;;5.60;99.90;;;;;;5063190;28;20140;-70
2022/11/30 02:33:50;;;;;;;110.82;37.13;;;5.60;99.90;;;;;;5064029;28;20017;-70
2022/11/30 02:36:17;;;;;;;121.30;37.45;;;5.60;99.90;;;;;;5063542;28;20025;-71
2022/11/30 02:38:43;;;;;;;113.10;37.38;;;5.60;99.90;;;;;;5063348;28;20067;-71
2022/11/30 02:41:09;;;;;;;116.00;40.15;;;5.60;99.90;;;;;;5063878;28;20045;-72
2022/11/30 02:43:35;;;;;;;116.68;38.20;;;5.60;99.90;;;;;;5063751;28;20033;-70
2022/11/30 02:46:30;;;;;;;103.40;36.60;;;5.60;99.90;;;;;;5062974;28;20047;-71
2022/11/30 02:49:24;;;;;;;106.32;35.00;;;5.60;99.90;;;;;;5064009;28;20048;-70
2022/11/30 02:51:52;;;;;;;111.53;37.03;;;5.60;99.90;;;;;;5054544;28;20559;-71
2022/11/30 02:54:18;;;;;;;118.78;35.55;;;5.60;99.90;;;;;;5063097;28;20040;-70
2022/11/30 02:56:44;;;;;;;108.03;37.47;;;5.60;99.90;;;;;;5063312;28;20021;-70
2022/11/30 02:59:09;;;;;;;114.97;36.70;;;5.60;99.90;;;;;;5063497;28;20033;-71
2022/11/30 03:01:35;;;;;;;97.40;34.90;;;5.60;99.90;;;;;;5063486;28;20041;-71
2022/11/30 03:04:01;;;;;;;95.95;34.17;;;5.60;99.90;;;;;;5063377;28;20504;-70
2022/11/30 03:06:26;;;;;;;105.93;35.30;;;5.50;99.90;;;;;;5062896;28;20040;-73
2022/11/30 03:08:52;;;;;;;99.63;35.42;;;5.60;99.90;;;;;;5063715;28;20033;-70
2022/11/30 03:11:17;;;;;;;108.95;35.83;;;5.60;99.90;;;;;;5063346;28;20074;-70
2022/11/30 03:13:43;;;;;;;98.07;36.38;;;5.60;99.90;;;;;;5062496;28;20063;-71
2022/11/30 03:16:12;;;;;;;104.35;36.47;;;5.60;99.90;;;;;;5062786;28;20044;-70
2022/11/30 03:18:38;;;;;;;102.78;35.83;;;5.60;99.90;;;;;;5062885;28;20040;-71
2022/11/30 03:21:08;;;;;;;96.60;35.95;;;5.60;99.90;;;;;;5062739;28;20021;-70
2022/11/30 03:23:35;;;;;;;99.97;34.83;;;5.60;99.90;;;;;;5062896;28;20025;-70
2022/11/30 03:26:01;;;;;;;105.93;36.95;;;5.70;99.90;;;;;;5063366;28;20048;-70
2022/11/30 03:28:27;;;;;;;88.82;35.25;;;5.60;99.90;;;;;;5062692;28;20028;-70
2022/11/30 03:30:52;;;;;;;93.55;35.38;;;5.70;99.90;;;;;;5062357;28;20053;-70
2022/11/30 03:33:18;;;;;;;96.65;35.38;;;5.60;99.90;;;;;;5062276;28;20060;-70
2022/11/30 03:35:45;;;;;;;90.85;35.25;;;5.70;99.90;;;;;;5061964;28;20053;-70
2022/11/30 03:38:11;;;;;;;107.97;35.50;;;5.60;99.90;;;;;;5062883;28;20090;-70
2022/11/30 03:40:37;;;;;;;100.25;35.28;;;5.70;99.90;;;;;;5062491;28;20481;-70
2022/11/30 03:43:03;;;;;;;105.68;37.28;;;5.70;99.90;;;;;;5062702;28;20048;-70
2022/11/30 03:45:29;;;;;;;104.75;36.75;;;5.60;99.90;;;;;;5062366;28;20051;-71
2022/11/30 03:47:55;;;;;;;96.25;35.85;;;5.70;99.90;;;;;;5062911;28;20466;-71
2022/11/30 03:50:24;;;;;;;100.28;35.58;;;5.60;99.90;;;;;;5062196;28;20063;-70
2022/11/30 03:52:49;;;;;;;109.47;36.47;;;5.70;99.90;;;;;;5062334;28;20033;-70
2022/11/30 03:55:15;;;;;;;107.60;36.60;;;5.60;99.90;;;;;;5062142;28;20074;-70
2022/11/30 03:57:41;;;;;;;111.18;38.97;;;5.60;99.90;;;;;;5063590;28;20074;-70
2022/11/30 04:00:07;;;;;;;112.57;37.42;;;5.60;99.90;;;;;;5083675;28;20035;-69
2022/11/30 04:02:33;;;;;;;98.82;36.00;;;5.70;99.90;;;;;;5083367;28;20028;-70
2022/11/30 04:04:58;;;;;;;99.15;36.10;;;5.70;99.90;;;;;;5083918;28;20056;-71
2022/11/30 04:07:24;;;;;;;109.47;35.95;;;5.70;99.90;;;;;;5084493;28;20066;-71
2022/11/30 04:09:50;;;;;;;121.20;38.58;;;5.60;99.90;;;;;;5065718;28;20400;-70
2022/11/30 04:12:15;;;;;;;120.18;39.30;;;5.50;99.90;;;;;;5083815;28;20029;-70
2022/11/30 04:14:41;;;;;;;105.97;37.72;;;5.60;99.90;;;;;;5083666;28;20028;-70
2022/11/30 04:17:06;;;;;;;117.32;38.55;;;5.60;99.90;;;;;;5083433;28;20028;-69
2022/11/30 04:19:32;;;;;;;121.32;37.05;;;5.60;99.90;;;;;;5083696;28;20119;-70
2022/11/30 04:21:57;;;;;;;120.20;40.60;;;5.60;99.90;;;;;;5083348;28;20059;-71
2022/11/30 04:24:23;;;;;;;102.40;36.30;;;5.60;99.90;;;;;;5083570;28;20484;-69
2022/11/30 04:26:49;;;;;;;111.68;38.58;;;5.60;99.90;;;;;;5083531;28;20052;-70
2022/11/30 04:29:14;;;;;;;105.13;37.08;;;5.60;99.90;;;;;;5083281;28;20044;-69
2022/11/30 04:31:40;;;;;;;113.30;37.53;;;5.70;99.90;;;;;;5083106;28;20037;-69
2022/11/30 04:34:05;;;;;;;120.60;38.67;;;5.70;99.90;;;;;;5083356;28;20051;-69
2022/11/30 04:36:31;;;;;;;106.65;35.92;;;5.60;99.90;;;;;;5083577;28;20531;-70
2022/11/30 04:38:57;;;;;;;102.32;36.03;;;5.60;99.90;;;;;;5083140;28;20067;-71
2022/11/30 04:41:22;;;;;;;105.25;36.58;;;5.60;99.90;;;;;;5083651;28;20044;-70
2022/11/30 04:43:48;;;;;;;117.95;37.00;;;5.60;99.90;;;;;;5085021;28;20693;-70
2022/11/30 04:46:14;;;;;;;116.93;36.97;;;5.60;99.90;;;;;;5089605;28;20072;-70
2022/11/30 04:48:39;;;;;;;102.68;35.80;;;5.60;99.90;;;;;;5090002;28;20025;-70
2022/11/30 04:51:07;;;;;;;107.90;37.78;;;5.50;99.90;;;;;;5089887;28;20435;-70
2022/11/30 04:53:34;;;;;;;101.18;35.67;;;5.50;99.90;;;;;;5089929;28;20021;-70
2022/11/30 04:56:04;;;;;;;116.68;36.08;;;5.60;99.90;;;;;;5089967;28;20087;-70
2022/11/30 04:58:30;;;;;;;118.03;37.28;;;5.60;99.90;;;;;;5089820;28;20032;-70
2022/11/30 05:00:56;;;;;;;107.05;36.17;;;5.60;99.90;;;;;;5089856;28;20020;-71
2022/11/30 05:03:21;;;;;;;107.25;35.38;;;5.60;99.90;;;;;;5089967;28;20024;-70
2022/11/30 05:05:47;;;;;;;92.35;34.55;;;5.50;99.90;;;;;;5089581;28;20044;-69
2022/11/30 05:08:12;;;;;;;105.78;34.25;;;5.60;99.90;;;;;;5071681;28;20473;-70
2022/11/30 05:10:38;;;;;;;99.93;34.53;;;5.60;99.90;;;;;;5089780;28;20170;-69
2022/11/30 05:13:04;;;;;;;89.90;33.38;;;5.60;99.90;;;;;;5089528;28;20033;-70
2022/11/30 05:15:30;;;;;;;97.43;34.72;;;5.60;99.90;;;;;;5089891;28;20033;-69
2022/11/30 05:18:00;;;;;;;95.93;34.17;;;5.60;99.90;;;;;;5089880;28;20093;-70
2022/11/30 05:20:27;;;;;;;99.15;34.22;;;5.60;99.90;;;;;;5089442;28;20063;-71
2022/11/30 05:22:53;;;;;;;92.25;35.25;;;5.60;99.90;;;;;;5090094;28;20021;-70
2022/11/30 05:25:18;;;;;;;97.38;35.55;;;5.60;99.90;;;;;;5089557;28;20093;-70
2022/11/30 05:27:44;;;;;;;97.68;34.65;;;5.60;99.90;;;;;;5089426;28;20040;-69
2022/11/30 05:30:13;;;;;;;112.07;36.08;;;5.60;99.90;;;;;;5088644;28;20068;-70
2022/11/30 05:32:38;;;;;;;108.47;38.90;;;5.60;99.90;;;;;;5089475;28;20021;-70
2022/11/30 05:35:04;;;;;;;115.95;39.95;;;5.60;99.90;;;;;;5089445;28;20029;-70
2022/11/30 05:37:30;;;;;;;113.43;38.80;;;5.50;99.90;;;;;;5089790;28;20028;-71
2022/11/30 05:39:56;;;;;;;120.88;39.75;;;5.50;99.90;;;;;;5089664;28;20029;-71
2022/11/30 05:42:21;;;;;;;114.38;41.22;;;5.50;99.90;;;;;;5089743;28;20035;-70
2022/11/30 05:44:47;;;;;;;130.27;40.20;;;5.60;99.90;;;;;;5090108;28;20031;-70
2022/11/30 05:47:13;;;;;;;143.30;43.03;;;5.50;99.90;;;;;;5089758;28;20499;-70
2022/11/30 05:49:38;;;;;;;137.32;40.58;;;5.50;99.90;;;;;;5089357;28;20044;-70
2022/11/30 05:52:04;;;;;;;144.43;42.38;;;5.50;99.90;;;;;;5089621;28;20021;-69
2022/11/30 05:54:30;;;;;;;130.25;41.45;;;5.50;99.90;;;;;;5089113;28;20027;-70
2022/11/30 05:56:56;;;;;;;124.03;42.45;;;5.50;99.90;;;;;;5085319;28;20029;-71
2022/11/30 05:59:22;;;;;;;134.23;42.90;;;5.50;99.90;;;;;;5086231;28;20023;-70
2022/11/30 06:01:50;;;;;;;131.82;41.53;;;5.60;99.90;;;;;;5085620;28;20044;-70
2022/11/30 06:04:15;;;;;;;133.10;43.65;;;5.50;99.90;;;;;;5086218;28;20572;-70
2022/11/30 06:06:41;;;;;;;124.20;41.60;;;5.50;99.90;;;;;;5085940;28;20096;-71
2022/11/30 06:09:07;;;;;;;118.85;39.63;;;5.50;99.90;;;;;;5069641;28;20036;-70
2022/11/30 06:11:33;;;;;;;123.72;42.88;;;5.50;99.90;;;;;;5065852;28;20095;-71
2022/11/30 06:13:58;;;;;;;128.77;42.42;;;5.50;99.90;;;;;;5066032;28;20106;-71
2022/11/30 06:16:24;;;;;;;134.55;41.58;;;5.50;99.90;;;;;;5065636;28;20108;-72
2022/11/30 06:18:49;;;;;;;121.10;39.75;;;5.50;99.90;;;;;;5065929;28;20673;-70
2022/11/30 06:21:15;;;;;;;133.75;41.55;;;5.50;99.90;;;;;;5065481;28;20037;-70
2022/11/30 06:23:40;;;;;;;121.70;41.20;;;5.50;99.90;;;;;;5065634;28;20036;-70
2022/11/30 06:26:09;;;;;;;115.95;39.30;;;5.50;99.90;;;;;;5065658;28;20393;-71
2022/11/30 06:28:36;;;;;;;120.30;39.63;;;5.50;99.90;;;;;;5065108;28;20047;-70
2022/11/30 06:31:05;;;;;;;123.28;39.40;;;5.50;99.90;;;;;;5064947;28;20036;-70
2022/11/30 06:33:30;;;;;;;125.97;39.30;;;5.50;99.90;;;;;;5065494;28;20442;-72
2022/11/30 06:35:56;;;;;;;137.38;41.13;;;5.50;99.90;;;;;;5063855;28;20040;-71
2022/11/30 06:38:23;;;;;;;137.65;43.42;;;5.50;99.90;;;;;;5065643;28;20032;-70
2022/11/30 06:40:48;;;;;;;151.60;43.03;;;5.50;99.90;;;;;;5062913;28;20137;-71
2022/11/30 06:43:14;;;;;;;133.20;42.95;;;5.50;99.90;;;;;;5065035;28;20033;-71
2022/11/30 06:45:43;;;;;;;136.38;43.53;;;5.50;99.90;;;;;;5065118;28;20037;-71
2022/11/30 06:48:10;;;;;;;132.65;42.28;;;5.50;99.90;;;;;;5063827;28;20028;-72
2022/11/30 06:50:36;;;;;;;130.55;41.65;;;5.50;99.90;;;;;;5063763;28;20037;-72
2022/11/30 06:53:02;;;;;;;128.98;40.03;;;5.40;99.90;;;;;;5059205;28;20036;-72
2022/11/30 06:55:31;;;;;;;128.80;42.28;;;5.50;99.90;;;;;;5057268;28;20037;-72
2022/11/30 06:58:07;;;;;;;129.80;40.88;;;5.50;99.90;;;;;;5055060;28;20024;-72
2022/11/30 07:00:33;;;;;;;113.75;40.13;;;5.50;99.90;;;;;;5061504;28;20025;-71
2022/11/30 07:02:59;;;;;;;132.07;43.65;;;5.50;99.90;;;;;;5064219;28;20039;-72
2022/11/30 07:05:24;;;;;;;127.03;40.92;;;5.40;99.90;;;;;;5063561;28;20029;-72
2022/11/30 07:07:50;;;;;;;135.15;44.25;;;5.40;99.90;;;;;;5064128;28;20096;-72
2022/11/30 07:10:16;;;;;;;118.95;40.75;;;5.40;99.90;;;;;;5064318;28;20039;-71
2022/11/30 07:12:41;;;;;;;131.20;41.97;;;5.40;99.90;;;;;;5065083;28;20021;-71
2022/11/30 07:15:07;;;;;;;114.30;41.58;;;5.40;99.90;;;;;;5053528;28;20049;-71
2022/11/30 07:17:33;;;;;;;119.85;43.40;;;5.40;99.90;;;;;;5044445;28;20100;-71
2022/11/30 07:19:59;;;;;;;121.82;44.28;;;5.40;99.90;;;;;;5044588;28;20033;-71
2022/11/30 07:22:24;;;;;;;131.10;42.90;;;5.40;99.90;;;;;;5044799;28;20033;-71
2022/11/30 07:27:34;;;;;;;117.95;42.30;;;5.40;99.90;;;;;;5062959;28;20056;-71
2022/11/30 07:30:00;;;;;;;134.43;45.40;;;5.40;99.90;;;;;;5064048;28;20045;-71
2022/11/30 07:32:25;;;;;;;130.43;45.17;;;5.40;99.90;;;;;;5063410;28;20036;-71
2022/11/30 07:34:51;;;;;;;118.45;43.60;;;5.40;99.90;;;;;;5064408;28;20063;-70
2022/11/30 07:37:17;;;;;;;128.48;45.22;;;5.40;99.90;;;;;;5064174;28;20033;-71
2022/11/30 07:39:42;;;;;;;118.22;43.83;;;5.40;99.90;;;;;;5063281;28;20381;-71
2022/11/30 07:42:08;;;;;;;115.10;43.13;;;5.40;99.90;;;;;;5063880;28;20025;-70
2022/11/30 07:44:33;;;;;;;121.60;43.45;;;5.40;99.90;;;;;;5064010;28;20021;-71
2022/11/30 07:46:59;;;;;;;123.45;44.83;;;5.40;99.90;;;;;;5063956;28;20033;-72
2022/11/30 07:49:25;;;;;;;119.45;45.83;;;5.50;99.90;;;;;;5064287;28;20017;-72
2022/11/30 07:51:51;;;;;;;122.03;43.00;;;5.40;99.90;;;;;;5063936;28;20037;-71
2022/11/30 07:54:17;;;;;;;110.57;41.13;;;5.40;99.90;;;;;;5063649;28;20029;-71
2022/11/30 07:56:42;;;;;;;124.18;43.38;;;5.40;99.90;;;;;;5064170;28;20028;-71
2022/11/30 07:59:08;;;;;;;123.53;44.95;;;5.40;99.90;;;;;;5064330;28;20029;-72
2022/11/30 08:01:34;;;;;;;127.03;44.58;;;5.40;99.90;;;;;;5064202;28;20029;-72
2022/11/30 08:04:00;;;;;;;128.77;42.55;;;5.40;99.90;;;;;;5063974;28;20017;-72
2022/11/30 08:06:28;;;;;;;114.22;43.50;;;5.40;99.90;;;;;;5045586;28;20087;-71
2022/11/30 08:08:59;;;;;;;124.63;42.63;;;5.40;99.90;;;;;;5064121;28;20029;-71
2022/11/30 08:11:29;;;;;;;131.07;43.78;;;5.40;99.90;;;;;;5063890;28;20021;-72
2022/11/30 08:13:55;;;;;;;120.75;43.33;;;5.50;99.90;;;;;;5046023;28;20028;-71
2022/11/30 08:16:24;;;;;;;128.98;43.22;;;5.50;99.90;;;;;;5062487;28;20028;-72
2022/11/30 08:18:50;;;;;;;131.57;45.17;;;5.50;99.90;;;;;;5062468;28;20056;-72
2022/11/30 08:21:19;;;;;;;137.52;42.97;;;5.50;99.90;;;;;;5061148;28;20033;-71
2022/11/30 08:23:50;;;;;;;131.73;43.50;;;5.50;99.90;;;;;;5063322;28;20039;-71
2022/11/30 08:26:24;;;;;;;128.93;44.45;;;5.50;99.90;;;;;;5061953;28;20081;-71
2022/11/30 08:28:50;;;;;;;130.35;45.33;;;5.50;99.90;;;;;;5062313;28;20495;-72
2022/11/30 08:31:18;;;;;;;139.82;46.22;;;5.50;99.90;;;;;;5062870;28;20045;-72
2022/11/30 08:33:44;;;;;;;130.88;44.33;;;5.50;99.90;;;;;;5063055;28;20831;-71
2022/11/30 08:36:11;;;;;;;152.95;47.47;;;5.50;99.90;;;;;;5063702;28;20029;-72
2022/11/30 08:38:38;;;;;;;138.23;45.00;;;5.60;99.90;;;;;;5063347;28;20112;-71
2022/11/30 08:41:05;;;;;;;133.52;45.10;;;5.60;99.90;;;;;;5061453;28;20029;-72
2022/11/30 08:43:31;;;;;;;136.88;47.05;;;5.60;99.90;;;;;;5061355;28;20219;-72
2022/11/30 08:45:56;;;;;;;132.77;44.20;;;5.60;99.90;;;;;;5062849;28;20040;-72
2022/11/30 08:48:22;;;;;;;127.50;42.05;;;5.60;99.90;;;;;;5043760;28;20033;-71
2022/11/30 08:50:48;;;;;;;143.40;47.25;;;5.60;99.90;;;;;;5062664;28;20031;-71
2022/11/30 08:53:13;;;;;;;132.40;45.13;;;5.60;99.90;;;;;;5062954;28;20063;-71
2022/11/30 08:55:39;;;;;;;148.38;48.95;;;5.60;99.90;;;;;;5063354;28;20035;-72
2022/11/30 08:58:05;;;;;;;141.70;47.53;;;5.60;99.90;;;;;;5062061;28;20042;-71
2022/11/30 09:00:30;;;;;;;140.98;47.85;;;5.60;99.90;;;;;;5061565;28;20029;-70
2022/11/30 09:02:56;;;;;;;146.63;46.25;;;5.60;99.90;;;;;;5060949;28;20033;-72
2022/11/30 09:05:22;;;;;;;143.07;47.30;;;5.60;99.90;;;;;;5058423;28;20094;-72
2022/11/30 09:07:48;;;;;;;131.13;45.80;;;5.60;99.90;;;;;;5052475;28;20421;-72
2022/11/30 09:10:14;;;;;;;159.63;46.75;;;5.60;99.90;;;;;;5054406;28;20040;-70
2022/11/30 09:12:40;;;;;;;166.18;48.42;;;5.70;99.90;;;;;;5059243;28;20033;-70
2022/11/30 09:15:07;;;;;;;157.38;49.90;;;5.70;99.90;;;;;;5048953;28;20048;-72
2022/11/30 09:17:33;;;;;;;146.40;48.83;;;5.70;99.90;;;;;;5059955;28;20055;-72
2022/11/30 09:19:59;;;;;;;152.90;48.22;;;5.70;99.90;;;;;;5035657;28;20028;-73
2022/11/30 09:22:25;;;;;;;166.18;51.00;;;5.70;99.90;;;;;;5045347;28;20025;-72
2022/11/30 09:24:51;;;;;;;151.90;51.55;;;5.70;99.90;;;;;;5051650;28;20049;-72
2022/11/30 09:27:16;;;;;;;153.98;49.50;;;5.70;99.90;;;;;;5057023;28;20041;-73
2022/11/30 09:29:42;;;;;;;161.10;52.47;;;5.70;99.90;;;;;;5062260;28;20057;-72
2022/11/30 09:32:08;;;;;;;157.13;48.45;;;5.60;99.90;;;;;;5057337;28;20090;-72
2022/11/30 09:34:33;;;;;;;151.98;49.13;;;5.70;99.90;;;;;;5065640;28;20088;-73
2022/11/30 09:36:59;;;;;;;148.55;48.55;;;5.70;99.90;;;;;;5056471;28;20116;-74
2022/11/30 09:39:24;;;;;;;151.85;48.83;;;5.70;99.90;;;;;;5052578;28;20029;-72
2022/11/30 09:41:59;;;;;;;156.80;45.67;;;5.80;99.90;;;;;;5062983;28;20024;-70
2022/11/30 09:44:54;;;;;;;139.38;45.40;;;5.70;99.90;;;;;;5062556;28;20117;-72
2022/11/30 09:47:51;;;;;;;131.63;45.55;;;5.80;99.90;;;;;;5066019;28;20130;-70
2022/11/30 09:50:21;;;;;;;149.10;46.35;;;5.80;99.90;;;;;;5063942;28;20056;-72
2022/11/30 09:53:01;;;;;;;144.85;46.53;;;5.90;99.90;;;;;;5065177;28;20048;-70
2022/11/30 09:55:38;;;;;;;151.40;48.20;;;5.80;99.90;;;;;;5064433;28;20033;-72
2022/11/30 09:58:05;;;;;;;140.65;48.20;;;5.80;99.90;;;;;;5046924;28;20025;-70
2022/11/30 10:00:33;;;;;;;158.48;47.83;;;5.80;99.90;;;;;;5065037;28;20615;-70
2022/11/30 10:03:04;;;;;;;141.18;46.08;;;5.80;99.90;;;;;;5063004;28;20033;-72
2022/11/30 10:06:00;;;;;;;159.35;49.17;;;5.80;99.90;;;;;;5062759;28;20029;-71
2022/11/30 10:08:37;;;;;;;151.73;45.65;;;5.90;99.90;;;;;;5057592;28;20032;-70
2022/11/30 10:11:22;;;;;;;150.35;45.25;;;5.80;99.90;;;;;;5063322;28;20037;-70
2022/11/30 10:14:03;;;;;;;139.95;46.47;;;5.90;99.90;;;;;;5053733;28;20026;-70
2022/11/30 10:16:47;;;;;;;147.43;47.00;;;5.80;99.90;;;;;;5045475;28;20115;-72
2022/11/30 10:19:41;;;;;;;134.00;45.55;;;5.80;99.90;;;;;;5052612;28;20041;-70
2022/11/30 10:22:20;;;;;;;141.13;44.75;;;5.90;99.90;;;;;;5058630;28;20028;-71
2022/11/30 10:25:05;;;;;;;147.07;46.13;;;5.90;99.90;;;;;;5061675;28;20024;-71
2022/11/30 10:27:52;;;;;;;146.13;47.25;;;5.90;99.90;;;;;;5061717;28;20037;-71
2022/11/30 10:30:21;;;;;;;148.95;46.85;;;5.90;99.90;;;;;;5063545;28;20052;-70
2022/11/30 10:32:54;;;;;;;121.55;41.53;;;5.80;99.90;;;;;;5064592;28;20034;-71
2022/11/30 10:35:47;;;;;;;152.80;46.58;;;5.80;99.90;;;;;;5061692;28;20028;-70
2022/11/30 10:38:34;;;;;;;137.85;44.85;;;5.90;99.90;;;;;;5061617;28;20029;-73
2022/11/30 10:41:09;;;;;;;137.57;45.50;;;5.90;99.90;;;;;;5064761;28;20033;-73
2022/11/30 10:43:42;;;;;;;147.35;44.83;;;5.90;99.90;;;;;;5039635;28;20033;-71
2022/11/30 10:46:19;;;;;;;140.88;45.30;;;5.90;99.90;;;;;;5062205;28;20103;-71
2022/11/30 10:48:58;;;;;;;152.75;47.33;;;5.90;99.90;;;;;;5056581;28;20025;-70
2022/11/30 10:51:25;;;;;;;132.82;44.28;;;5.90;99.90;;;;;;5050657;28;20485;-71
2022/11/30 10:53:51;;;;;;;135.32;45.40;;;5.90;99.90;;;;;;5053386;28;20079;-71
2022/11/30 10:56:17;;;;;;;153.07;46.63;;;5.90;99.90;;;;;;5064563;28;20090;-71
2022/11/30 10:58:59;;;;;;;139.05;44.20;;;5.90;99.90;;;;;;5055550;28;20085;-70
2022/11/30 11:01:41;;;;;;;145.82;45.08;;;5.90;99.90;;;;;;5055876;28;20036;-71
2022/11/30 11:04:12;;;;;;;124.75;43.55;;;6.00;99.90;;;;;;5063566;28;20040;-72
2022/11/30 11:07:01;;;;;;;155.13;45.10;;;6.00;99.90;;;;;;5064910;28;20041;-71
2022/11/30 11:09:38;;;;;;;153.48;46.22;;;6.00;99.90;;;;;;5054048;28;20027;-70
2022/11/30 11:12:24;;;;;;;137.18;44.00;;;6.10;99.90;;;;;;5050183;28;20025;-70
2022/11/30 11:15:36;;;;;;;142.13;44.83;;;6.10;99.90;;;;;;5063419;28;20035;-71
2022/11/30 11:18:21;;;;;;;147.25;44.75;;;6.10;99.90;;;;;;5023783;28;20041;-71
2022/11/30 11:20:48;;;;;;;147.05;46.63;;;6.10;99.90;;;;;;5058279;28;20037;-71
2022/11/30 11:23:32;;;;;;;141.88;44.83;;;6.00;99.90;;;;;;5063362;28;20029;-71
2022/11/30 11:25:58;;;;;;;141.20;44.42;;;6.10;99.90;;;;;;5059363;28;20037;-74
2022/11/30 11:28:25;;;;;;;145.63;46.33;;;6.10;99.90;;;;;;5063246;28;20070;-74
2022/11/30 11:30:55;;;;;;;126.10;43.03;;;6.20;99.90;;;;;;5061444;28;20049;-73
2022/11/30 11:33:22;;;;;;;145.50;44.67;;;6.10;99.90;;;;;;5064390;28;20033;-72
2022/11/30 11:35:51;;;;;;;133.02;42.88;;;6.10;99.90;;;;;;5063798;28;20033;-73
2022/11/30 11:38:46;;;;;;;134.60;40.95;;;6.20;99.90;;;;;;5063655;28;20107;-73
2022/11/30 11:41:21;;;;;;;129.32;41.90;;;6.10;99.90;;;;;;5054581;28;20021;-73
2022/11/30 11:44:20;;;;;;;129.00;41.75;;;6.20;99.90;;;;;;5059324;28;20029;-73
2022/11/30 11:47:01;;;;;;;133.63;41.00;;;6.20;99.90;;;;;;5052273;28;20041;-72
2022/11/30 11:49:31;;;;;;;124.53;41.00;;;6.20;99.90;;;;;;5057920;28;20071;-73
2022/11/30 11:52:16;;;;;;;122.97;41.15;;;6.20;99.90;;;;;;5063211;28;20029;-73
2022/11/30 11:55:04;;;;;;;105.63;37.55;;;6.20;99.90;;;;;;5060686;28;20024;-71
2022/11/30 11:57:52;;;;;;;134.55;41.22;;;6.20;99.90;;;;;;5057275;28;20033;-72
2022/11/30 12:00:20;;;;;;;111.70;35.95;;;6.10;99.90;;;;;;5057444;28;20513;-70
2022/11/30 12:03:02;;;;;;;110.10;39.85;;;6.10;99.90;;;;;;5061394;28;20156;-71
2022/11/30 12:05:32;;;;;;;110.55;39.42;;;6.10;99.90;;;;;;5060375;28;20053;-71
2022/11/30 12:08:15;;;;;;;100.93;37.33;;;6.10;99.90;;;;;;5061452;28;20024;-71
2022/11/30 12:10:57;;;;;;;113.80;38.47;;;6.10;99.90;;;;;;5059277;28;20036;-72
2022/11/30 12:13:28;;;;;;;95.15;39.17;;;6.10;99.90;;;;;;5045634;28;21036;-71
2022/11/30 12:16:13;;;;;;;111.30;42.20;;;6.10;99.90;;;;;;5060506;28;20063;-73
2022/11/30 12:18:45;;;;;;;105.45;38.42;;;6.20;99.90;;;;;;5061572;28;20032;-72
2022/11/30 12:21:15;;;;;;;98.18;37.05;;;6.20;99.90;;;;;;5062508;28;20056;-72
2022/11/30 12:24:08;;;;;;;102.50;41.28;;;6.20;99.90;;;;;;5041575;28;20029;-73
2022/11/30 12:26:47;;;;;;;100.88;38.47;;;6.20;99.90;;;;;;5044046;28;20060;-73
2022/11/30 12:29:21;;;;;;;100.68;36.63;;;6.20;99.90;;;;;;5044147;28;20025;-72
2022/11/30 12:31:46;;;;;;;;;;;6.20;99.90;;;;;;5062688;28;20148;-73
2022/11/30 12:34:24;;;;;;;93.55;34.95;;;6.20;99.90;;;;;;5063012;28;19970;-73
2022/11/30 12:37:05;;;;;;;93.57;36.28;;;6.20;99.90;;;;;;5063256;28;20044;-73
2022/11/30 12:39:56;;;;;;;98.55;37.00;;;6.10;99.90;;;;;;5063058;28;20036;-73
2022/11/30 12:42:37;;;;;;;91.90;35.13;;;6.20;99.90;;;;;;5063070;28;20056;-72
2022/11/30 12:45:15;;;;;;;94.75;36.25;;;6.20;99.90;;;;;;5063563;28;20069;-73